Otsego, MI (49078)

5:11 AM EST on February 25, 2017 (GMT -0500)
Weather Coffee Shoppe - Otsego | | Change Station
Active Advisory: Winter Weather Advisory

Elev 722 ft 42.46 °N, 85.71 °W | Updated 2 minutes ago

Snow
Snow
31.1 °F
Feels Like 31 °F
N
3.0
Wind Variable Wind from NW

Today
High -- | Low -- °F
--% Chance of Precip.
Yesterday
High -- | Low -- °F
Precip. -- in
Pressure 29.53 in
Visibility 2.0 miles
Clouds Few 800 ft
Mostly Cloudy 1300 ft
Overcast 3400 ft
Windchill 31 °F
Dew Point 29 °F
Humidity 93%
Rainfall 0.00 in
Snow Depth Not available.
7:24 AM 6:28 PM
Waning Crescent, 2% visible
SPECI KAZO 250958Z AUTO 28005KT 2SM -SN BR FEW008 BKN013 OVC034 01/M02 A2953 RMK AO2 P0000 T00061017
Pressure 29.53 in
Visibility 2.0 miles
Clouds Few 800 ft
Mostly Cloudy 1300 ft
Overcast 3400 ft
Windchill 31 °F
Dew Point 29 °F
Humidity 93%
Rainfall 0.00 in
Snow Depth Not available.
7:24 AM 6:28 PM
Waning Crescent, 2% visible
SPECI KAZO 250958Z AUTO 28005KT 2SM -SN BR FEW008 BKN013 OVC034 01/M02 A2953 RMK AO2 P0000 T00061017

Get Your Daily Forecast Email!

Thanks for signing up!

Be on the lookout for a verification email in your inbox.

You'll start receiving the daily forecast at 8 AM.

×

10-Day Weather Forecast

Almanac

Astronomy

Feb. 25, 2017 Rise Set
Actual Time
Civil Twilight
Nautical Twilight
Astronomical Twilight
Moon
Length of Visible Light
Length of Day
Tomorrow will be .
, % of the Moon is Illuminated

Today's Extremes

State Highs State Lows

Community

WunderPhotos

Upload Photos

1,962,540 photos uploaded!

WunderBlog® & News

Nearby

Air Quality

  Air Quality AQ Index Pollutant
Not available.

Snow Depth

Station Depth Elevation

Earthquake Activity

City Distance Mag. Time & Date
Minimum magnitude displayed is 2.5.

Coastal Water Temperatures

Place Temperature

Stations

Nearby Weather Stations

Station Location Temp. Windchill Dew Point Humidity Wind Precip. Elev Updated Type
                   

Watches & Warnings

Winter Weather Advisory
Issued: 3:32 AM EST Feb. 25, 2017 – National Weather Service

... Winter Weather Advisory remains in effect until 8 PM EST this
evening...

Hazardous weather...

* occasional snow showers.

* Winds gusting to 35 mph producing near whiteout conditions,
   especially Saturday morning.

* 1 to 3 inches of snow accumulation by Saturday evening.

Impacts...

* roads becoming snow covered and slippery.

* Visibilities occasionally reduced to less than a half mile.

Precautionary/preparedness actions...

* the Michigan Department of Transportation reminds motorists
   to adjust speeds based on the conditions... and to take it
   slow in ice and snow.



Ostuno